createdAt,value
2017-12-30T18:54:55.825Z,6.80
2017-12-30T18:57:23.352Z,6.90
2017-12-30T18:59:50.906Z,6.90
2017-12-30T19:02:18.466Z,6.90
2017-12-30T19:04:45.991Z,6.90
2017-12-30T19:07:13.527Z,6.90
2017-12-30T19:09:41.114Z,7.00
2017-12-30T19:12:08.648Z,7.00
2017-12-30T19:14:36.220Z,7.00
2017-12-30T19:17:03.815Z,7.00
2017-12-30T19:19:31.371Z,7.00
2017-12-30T19:21:58.922Z,7.00
2017-12-30T19:24:27.257Z,7.00
2017-12-30T19:26:54.782Z,7.00
2017-12-30T19:29:22.312Z,7.00
2017-12-30T19:31:50.631Z,7.00
2017-12-30T19:34:18.169Z,6.90
2017-12-30T19:36:45.704Z,6.90
2017-12-30T19:39:13.258Z,6.90
2017-12-30T19:44:14.696Z,6.80
2017-12-30T19:46:42.227Z,6.80
2017-12-30T19:49:09.762Z,6.80
2017-12-30T19:51:37.324Z,6.70
2017-12-30T19:54:04.880Z,6.70
2017-12-30T19:56:33.180Z,6.80
2017-12-30T19:59:01.507Z,6.70
2017-12-30T20:01:29.035Z,6.80
2017-12-30T20:03:56.811Z,6.80
2017-12-30T20:06:24.394Z,6.80
2017-12-30T20:08:51.927Z,6.80
2017-12-30T20:11:19.462Z,6.70
2017-12-30T20:13:47.063Z,6.70
2017-12-30T20:16:14.632Z,6.80
2017-12-30T20:18:42.179Z,6.80
2017-12-30T20:21:09.775Z,6.80
2017-12-30T20:23:37.317Z,6.80
2017-12-30T20:26:04.858Z,6.80
2017-12-30T20:28:32.438Z,6.90
2017-12-30T20:30:59.962Z,6.90
2017-12-30T20:33:27.500Z,6.90
2017-12-30T20:35:55.075Z,6.90
2017-12-30T20:38:22.626Z,7.00
2017-12-30T20:40:50.175Z,7.00
2017-12-30T20:43:18.500Z,7.00
2017-12-30T20:45:46.073Z,7.00
2017-12-30T20:48:14.388Z,7.10
2017-12-30T20:50:42.712Z,7.20
2017-12-30T20:53:10.277Z,7.20
2017-12-30T20:55:37.828Z,7.30
2017-12-30T20:58:05.406Z,7.40
2017-12-30T21:00:32.930Z,7.40
2017-12-30T21:03:00.474Z,7.50
2017-12-30T21:05:28.810Z,7.50
2017-12-30T21:07:56.350Z,7.50
2017-12-30T21:10:23.926Z,7.70
2017-12-30T21:12:51.667Z,7.70
2017-12-30T21:15:19.196Z,7.60
2017-12-30T21:17:47.527Z,7.70
2017-12-30T21:20:15.126Z,7.60
2017-12-30T21:22:42.650Z,7.70
2017-12-30T21:25:10.197Z,7.70
2017-12-30T21:27:37.759Z,7.80
2017-12-30T21:30:05.302Z,7.80
2017-12-30T21:32:32.874Z,7.80
2017-12-30T21:35:00.420Z,7.90
2017-12-30T21:37:28.008Z,7.90
2017-12-30T21:39:55.580Z,7.90
2017-12-30T21:42:23.136Z,7.90
2017-12-30T21:44:50.698Z,8.00
2017-12-30T21:47:18.247Z,8.10
2017-12-30T21:49:45.782Z,8.20
2017-12-30T21:52:13.307Z,8.20
2017-12-30T21:54:40.888Z,8.20
2017-12-30T21:57:08.459Z,8.40
2017-12-30T21:59:36.008Z,8.50
2017-12-30T22:02:03.611Z,8.50
2017-12-30T22:04:31.170Z,8.60
2017-12-30T22:06:58.718Z,8.60
2017-12-30T22:09:26.289Z,8.60
2017-12-30T22:11:53.852Z,8.70
2017-12-30T22:14:21.409Z,8.70
2017-12-30T22:16:48.962Z,8.70
2017-12-30T22:19:17.961Z,8.70
2017-12-30T22:21:45.515Z,8.70
2017-12-30T22:24:13.777Z,8.70
2017-12-30T22:26:41.315Z,8.60
2017-12-30T22:29:09.647Z,8.70
2017-12-30T22:31:37.171Z,8.70
2017-12-30T22:34:05.472Z,8.80
2017-12-30T22:36:33.226Z,8.80
2017-12-30T22:39:00.761Z,8.80
2017-12-30T22:41:28.315Z,8.70
2017-12-30T22:43:55.852Z,8.80
2017-12-30T22:46:23.447Z,8.80
2017-12-30T22:48:51.023Z,8.80
2017-12-30T22:51:19.731Z,8.90
2017-12-30T22:53:47.314Z,9.00
2017-12-30T22:56:14.911Z,9.00
2017-12-30T22:58:42.451Z,9.10
2017-12-30T23:01:10.772Z,9.10
2017-12-30T23:03:38.303Z,9.00
2017-12-30T23:06:05.897Z,9.00
2017-12-30T23:08:33.478Z,9.10
2017-12-30T23:11:01.095Z,9.10
2017-12-30T23:13:28.666Z,9.10
2017-12-30T23:15:56.214Z,9.00
2017-12-30T23:18:23.762Z,9.10
2017-12-30T23:20:51.344Z,9.00
2017-12-30T23:23:18.890Z,9.00
2017-12-30T23:25:46.458Z,9.00
2017-12-30T23:28:14.012Z,9.00
2017-12-30T23:30:41.574Z,9.00
2017-12-30T23:33:09.870Z,8.90
2017-12-30T23:35:37.407Z,8.90
2017-12-30T23:38:04.994Z,8.90
2017-12-30T23:40:32.523Z,8.90
2017-12-30T23:43:00.071Z,8.80
2017-12-30T23:45:27.651Z,8.80
2017-12-30T23:47:55.203Z,8.80
2017-12-30T23:50:22.745Z,8.80
2017-12-30T23:52:50.361Z,8.90
2017-12-30T23:55:17.916Z,8.80
2017-12-30T23:57:45.455Z,8.80
